Weather History for KIDP - October, 2012

Change the Weather History Date:

Friday, October 26, 2012

  Actual Average (KCFV) Record (KCFV)
Temperature  
Mean Temperature 40 °F -  
Max Temperature 46 °F 65 °F 84 °F (2014)
Min Temperature 33 °F 45 °F 30 °F (2001)
Degree Days  
Heating Degree Days 26    
Moisture  
Dew Point 30 °F    
Average Humidity 70    
Maximum Humidity 93    
Minimum Humidity 50    
Precipitation  
Precipitation 0.00 in - - ()
Sea Level Pressure  
Sea Level Pressure 30.38 in    
Wind  
Wind Speed 13 mph (North)    
Max Wind Speed 21 mph    
Max Gust Speed 29 mph    
Visibility 10 miles    
Events      
Averages and records for this station are not official NWS values.
T = Trace of Precipitation, MM = Missing Value Source: NWS Daily Summary

Daily Weather History Graph

Daily Weather History Graph

Search for Another Location

Airport or City:

Trip Planner

Search our weather history database for the weather conditions in past years. The results will help you decide how hot, cold, wet, or windy it might be!

Date:

Astronomy

Oct. 26, 2012 Rise Set
Actual Time 7:41 AM CDT 6:31 PM CDT
Civil Twilight 7:15 AM CDT 6:58 PM CDT
Nautical Twilight 6:44 AM CDT 7:28 PM CDT
Astronomical Twilight 6:14 AM CDT 7:58 PM CDT
Moon 4:45 PM CDT (10/26) 4:42 AM CDT (10/26)
Length of Visible Light 11h 42m
Length of Day
10h 49m
Waxing Gibbous, 91% of the Moon is Illuminated
Oct 26
Waxing Gibbous
Oct 29
Full
Nov 6
Last Quarter
Nov 13
New
Nov 20
First Quarter

Hourly Weather History & Observations

Time (CDT) Temp. Windchill Dew Point Humidity Pressure Visibility Wind Dir Wind Speed Gust Speed Precip Events Conditions
12:15 AM 41.0 °F 34.3 °F 33.8 °F 76% 30.27 in 10.0 mi North 11.5 mph - N/A   Clear
12:35 AM 39.2 °F 32.5 °F 32.0 °F 75% 30.27 in 10.0 mi North 10.4 mph 18.4 mph N/A   Clear
1:15 AM 37.4 °F 28.9 °F 32.0 °F 81% 30.29 in 10.0 mi North 13.8 mph - N/A   Clear
1:35 AM 37.4 °F 28.9 °F 32.0 °F 81% 30.30 in 10.0 mi North 13.8 mph 21.9 mph N/A   Clear
1:55 AM 37.4 °F 28.9 °F 32.0 °F 81% 30.30 in 10.0 mi North 13.8 mph - N/A   Clear
2:15 AM 35.6 °F 26.6 °F 32.0 °F 87% 30.30 in 10.0 mi North 13.8 mph 17.3 mph N/A   Clear
2:35 AM 35.6 °F 28.0 °F 32.0 °F 87% 30.30 in 10.0 mi North 10.4 mph - N/A   Clear
2:55 AM 35.6 °F 27.1 °F 32.0 °F 87% 30.31 in 10.0 mi North 12.7 mph - N/A   Clear
3:15 AM 35.6 °F 27.1 °F 32.0 °F 87% 30.32 in 10.0 mi North 12.7 mph - N/A   Clear
3:55 AM 33.8 °F 27.0 °F 32.0 °F 93% 30.31 in 10.0 mi North 8.1 mph - N/A   Scattered Clouds
4:15 AM 33.8 °F 26.4 °F 30.2 °F 87% 30.32 in 10.0 mi North 9.2 mph - N/A   Scattered Clouds
4:35 AM 33.8 °F 26.4 °F 30.2 °F 87% 30.32 in 10.0 mi North 9.2 mph - N/A   Clear
4:55 AM 33.8 °F 25.3 °F 30.2 °F 87% 30.33 in 10.0 mi North 11.5 mph - N/A   Scattered Clouds
5:15 AM 33.8 °F 24.8 °F 30.2 °F 87% 30.32 in 10.0 mi NNE 12.7 mph 19.6 mph N/A   Scattered Clouds
5:35 AM 35.6 °F 24.8 °F 30.2 °F 81% 30.31 in 10.0 mi NNE 19.6 mph 25.3 mph N/A   Mostly Cloudy
5:55 AM 35.6 °F 26.2 °F 30.2 °F 81% 30.33 in 10.0 mi North 15.0 mph - N/A   Overcast
6:15 AM 35.6 °F 27.1 °F 30.2 °F 81% 30.35 in 10.0 mi North 12.7 mph - N/A   Overcast
6:35 AM 35.6 °F 26.6 °F 30.2 °F 81% 30.36 in 10.0 mi North 13.8 mph - N/A   Overcast
6:55 AM 37.4 °F 28.2 °F 30.2 °F 75% 30.36 in 10.0 mi North 16.1 mph 21.9 mph N/A   Overcast
7:15 AM 37.4 °F 28.9 °F 30.2 °F 75% 30.36 in 10.0 mi NNE 13.8 mph - N/A   Overcast
7:55 AM 35.6 °F 25.2 °F 30.2 °F 81% 30.39 in 10.0 mi North 18.4 mph 27.6 mph N/A   Overcast
8:35 AM 35.6 °F 25.5 °F 28.4 °F 75% 30.41 in 10.0 mi North 17.3 mph 25.3 mph N/A   Overcast
8:55 AM 35.6 °F 24.8 °F 28.4 °F 75% 30.42 in 10.0 mi NNE 19.6 mph 26.5 mph N/A   Overcast
9:15 AM 37.4 °F 28.5 °F 30.2 °F 75% 30.42 in 10.0 mi North 15.0 mph - N/A   Overcast
9:35 AM 37.4 °F 27.2 °F 28.4 °F 70% 30.42 in 10.0 mi NNE 19.6 mph 25.3 mph N/A   Overcast
9:55 AM 37.4 °F 27.5 °F 28.4 °F 70% 30.43 in 10.0 mi NNE 18.4 mph 24.2 mph N/A   Overcast
10:15 AM 37.4 °F 27.8 °F 28.4 °F 70% 30.43 in 10.0 mi NNE 17.3 mph 25.3 mph N/A   Overcast
10:35 AM 37.4 °F 26.9 °F 28.4 °F 70% 30.44 in 10.0 mi North 20.7 mph 25.3 mph N/A   Overcast
10:55 AM 39.2 °F 29.8 °F 30.2 °F 70% 30.44 in 10.0 mi North 18.4 mph 24.2 mph N/A   Overcast
11:15 AM 41.0 °F 31.9 °F 30.2 °F 65% 30.45 in 10.0 mi NNE 19.6 mph 24.2 mph N/A   Mostly Cloudy
11:35 AM 41.0 °F 31.9 °F 30.2 °F 65% 30.45 in 10.0 mi NNE 19.6 mph 25.3 mph N/A   Mostly Cloudy
11:55 AM 42.8 °F 35.8 °F 30.2 °F 61% 30.45 in 10.0 mi North 13.8 mph - N/A   Scattered Clouds
12:15 PM 42.8 °F 35.1 °F 30.2 °F 61% 30.45 in 10.0 mi North 16.1 mph 23.0 mph N/A   Scattered Clouds
12:35 PM 42.8 °F 35.1 °F 30.2 °F 61% 30.45 in 10.0 mi North 16.1 mph 21.9 mph N/A   Scattered Clouds
12:55 PM 44.6 °F 37.4 °F 30.2 °F 57% 30.44 in 10.0 mi North 16.1 mph 25.3 mph N/A   Clear
1:15 PM 44.6 °F 36.4 °F 30.2 °F 57% 30.42 in 10.0 mi North 20.7 mph - N/A   Clear
1:35 PM 44.6 °F 37.2 °F 30.2 °F 57% 30.42 in 10.0 mi North 17.3 mph 24.2 mph N/A   Clear
1:55 PM 46.4 °F 39.8 °F 30.2 °F 53% 30.40 in 10.0 mi North 16.1 mph 23.0 mph N/A   Clear
2:15 PM 46.4 °F 38.7 °F 28.4 °F 50% 30.39 in 10.0 mi North 20.7 mph 28.8 mph N/A   Clear
2:35 PM 46.4 °F 39.5 °F 28.4 °F 50% 30.38 in 10.0 mi NNE 17.3 mph 24.2 mph N/A   Clear
2:55 PM 46.4 °F 39.2 °F 28.4 °F 50% 30.37 in 10.0 mi NNE 18.4 mph 21.9 mph N/A   Clear
3:15 PM 46.4 °F 39.5 °F 28.4 °F 50% 30.37 in 10.0 mi NNE 17.3 mph 24.2 mph N/A   Clear
3:35 PM 46.4 °F 39.5 °F 28.4 °F 50% 30.37 in 10.0 mi NNE 17.3 mph 24.2 mph N/A   Clear
3:55 PM 46.4 °F 39.5 °F 28.4 °F 50% 30.37 in 10.0 mi North 17.3 mph - N/A   Clear
4:15 PM 46.4 °F 39.2 °F 28.4 °F 50% 30.37 in 10.0 mi North 18.4 mph 21.9 mph N/A   Clear
4:35 PM 46.4 °F 40.4 °F 28.4 °F 50% 30.37 in 10.0 mi North 13.8 mph 18.4 mph N/A   Clear
4:55 PM 46.4 °F 40.1 °F 30.2 °F 53% 30.37 in 10.0 mi North 15.0 mph 23.0 mph N/A   Clear
5:15 PM 46.4 °F 40.1 °F 28.4 °F 50% 30.37 in 10.0 mi North 15.0 mph 24.2 mph N/A   Clear
5:35 PM 44.6 °F 37.4 °F 28.4 °F 53% 30.37 in 10.0 mi North 16.1 mph - N/A   Clear
5:55 PM 44.6 °F 38.8 °F 28.4 °F 53% 30.36 in 10.0 mi NNE 11.5 mph - N/A   Clear
6:15 PM 44.6 °F 37.8 °F 28.4 °F 53% 30.36 in 10.0 mi North 15.0 mph - N/A   Clear
6:35 PM 42.8 °F 36.2 °F 28.4 °F 57% 30.37 in 10.0 mi NNE 12.7 mph - N/A   Clear
6:55 PM 41.0 °F 35.8 °F 28.4 °F 61% 30.38 in 10.0 mi NNE 8.1 mph - N/A   Clear
7:15 PM 39.2 °F 33.6 °F 28.4 °F 65% 30.39 in 10.0 mi North 8.1 mph - N/A   Clear
7:35 PM 39.2 °F 35.0 °F 28.4 °F 65% 30.39 in 10.0 mi North 5.8 mph - N/A   Clear
7:55 PM 37.4 °F 32.1 °F 28.4 °F 70% 30.40 in 10.0 mi North 6.9 mph - N/A   Clear
8:15 PM 37.4 °F 31.4 °F 28.4 °F 70% 30.40 in 10.0 mi North 8.1 mph - N/A   Clear
8:35 PM 37.4 °F 31.4 °F 28.4 °F 70% 30.40 in 10.0 mi North 8.1 mph - N/A   Clear
8:55 PM 35.6 °F 29.9 °F 28.4 °F 75% 30.40 in 10.0 mi NNE 6.9 mph - N/A   Clear
9:15 PM 35.6 °F 29.9 °F 28.4 °F 75% 30.41 in 10.0 mi NNE 6.9 mph - N/A   Clear
9:35 PM 35.6 °F 30.7 °F 28.4 °F 75% 30.40 in 10.0 mi NNE 5.8 mph - N/A   Clear
9:55 PM 35.6 °F 30.7 °F 28.4 °F 75% 30.41 in 10.0 mi NNE 5.8 mph - N/A   Clear
10:15 PM 33.8 °F 27.7 °F 28.4 °F 81% 30.40 in 10.0 mi North 6.9 mph - N/A   Clear
10:35 PM 33.8 °F 27.0 °F 28.4 °F 81% 30.40 in 10.0 mi North 8.1 mph - N/A   Clear
10:55 PM 33.8 °F 27.0 °F 28.4 °F 81% 30.39 in 10.0 mi North 8.1 mph - N/A   Clear
11:15 PM 33.8 °F 26.4 °F 28.4 °F 81% 30.40 in 10.0 mi North 9.2 mph - N/A   Clear
11:35 PM 33.8 °F 27.0 °F 28.4 °F 81% 30.40 in 10.0 mi North 8.1 mph - N/A   Clear
11:55 PM 33.8 °F 27.0 °F 28.4 °F 81% 30.39 in 10.0 mi North 8.1 mph - N/A   Clear